sensor_id;sensor_type;location;lat;lon;timestamp;pressure;altitude;pressure_sealevel;temperature;humidity
48874;BME280;66155;46.204;5.220;2023-01-05T00:04:27;99979.91;;;9.55;77.60
48874;BME280;66155;46.204;5.220;2023-01-05T00:09:28;99978.91;;;9.56;77.56
48874;BME280;66155;46.204;5.220;2023-01-05T00:14:30;99969.09;;;9.58;77.46
48874;BME280;66155;46.204;5.220;2023-01-05T00:19:50;99974.66;;;9.62;78.02
48874;BME280;66155;46.204;5.220;2023-01-05T00:25:15;99969.25;;;9.63;77.65
48874;BME280;66155;46.204;5.220;2023-01-05T00:30:24;99969.25;;;9.63;78.63
48874;BME280;66155;46.204;5.220;2023-01-05T00:35:25;99963.41;;;9.68;78.09
48874;BME280;66155;46.204;5.220;2023-01-05T00:40:26;99953.44;;;9.65;78.47
48874;BME280;66155;46.204;5.220;2023-01-05T00:45:26;99962.03;;;9.65;78.38
48874;BME280;66155;46.204;5.220;2023-01-05T00:50:27;99955.41;;;9.69;78.21
48874;BME280;66155;46.204;5.220;2023-01-05T00:55:27;99954.22;;;9.65;78.83
48874;BME280;66155;46.204;5.220;2023-01-05T01:00:28;99944.41;;;9.67;78.46
48874;BME280;66155;46.204;5.220;2023-01-05T01:05:28;99951.03;;;9.63;79.11
48874;BME280;66155;46.204;5.220;2023-01-05T01:10:28;99939.81;;;9.63;79.25
48874;BME280;66155;46.204;5.220;2023-01-05T01:15:29;99940.44;;;9.65;79.02
48874;BME280;66155;46.204;5.220;2023-01-05T01:20:29;99937.22;;;9.63;79.34
48874;BME280;66155;46.204;5.220;2023-01-05T01:25:30;99937.00;;;9.64;79.63
48874;BME280;66155;46.204;5.220;2023-01-05T01:30:30;99948.81;;;9.67;79.44
48874;BME280;66155;46.204;5.220;2023-01-05T01:35:31;99944.81;;;9.64;79.97
48874;BME280;66155;46.204;5.220;2023-01-05T01:40:43;99942.81;;;9.66;80.41
48874;BME280;66155;46.204;5.220;2023-01-05T01:45:44;99942.34;;;9.76;78.92
48874;BME280;66155;46.204;5.220;2023-01-05T01:50:53;99939.38;;;9.73;80.67
48874;BME280;66155;46.204;5.220;2023-01-05T01:55:57;99950.56;;;9.73;80.24
48874;BME280;66155;46.204;5.220;2023-01-05T02:00:59;99944.56;;;9.79;79.85
48874;BME280;66155;46.204;5.220;2023-01-05T02:06:02;99933.31;;;9.79;79.54
48874;BME280;66155;46.204;5.220;2023-01-05T02:27:46;99923.94;;;9.78;81.42
48874;BME280;66155;46.204;5.220;2023-01-05T02:43:01;99898.25;;;9.88;79.54
48874;BME280;66155;46.204;5.220;2023-01-05T02:48:03;99895.09;;;9.79;80.82
48874;BME280;66155;46.204;5.220;2023-01-05T02:53:13;99898.31;;;9.75;81.61
48874;BME280;66155;46.204;5.220;2023-01-05T03:03:38;99886.16;;;9.68;82.40
48874;BME280;66155;46.204;5.220;2023-01-05T03:08:48;99883.94;;;9.72;83.25
48874;BME280;66155;46.204;5.220;2023-01-05T03:13:54;99876.34;;;9.70;82.71
48874;BME280;66155;46.204;5.220;2023-01-05T03:19:01;99876.44;;;9.82;82.07
48874;BME280;66155;46.204;5.220;2023-01-05T03:24:21;99870.44;;;9.82;82.84
48874;BME280;66155;46.204;5.220;2023-01-05T03:29:40;99866.84;;;9.83;82.64
48874;BME280;66155;46.204;5.220;2023-01-05T03:35:04;99863.03;;;9.79;84.17
48874;BME280;66155;46.204;5.220;2023-01-05T03:40:31;99862.22;;;9.85;83.83
48874;BME280;66155;46.204;5.220;2023-01-05T03:45:37;99860.81;;;9.82;84.78
48874;BME280;66155;46.204;5.220;2023-01-05T03:50:39;99856.44;;;9.83;83.30
48874;BME280;66155;46.204;5.220;2023-01-05T03:55:39;99862.22;;;9.85;83.32
48874;BME280;66155;46.204;5.220;2023-01-05T04:00:40;99857.59;;;9.87;84.30
48874;BME280;66155;46.204;5.220;2023-01-05T04:05:40;99853.53;;;9.91;83.55
48874;BME280;66155;46.204;5.220;2023-01-05T04:10:41;99854.16;;;9.93;83.41
48874;BME280;66155;46.204;5.220;2023-01-05T04:15:41;99849.94;;;9.92;84.24
48874;BME280;66155;46.204;5.220;2023-01-05T04:20:42;99845.88;;;9.96;84.11
48874;BME280;66155;46.204;5.220;2023-01-05T04:25:42;99844.31;;;9.95;84.80
48874;BME280;66155;46.204;5.220;2023-01-05T04:30:43;99846.91;;;9.95;84.89
48874;BME280;66155;46.204;5.220;2023-01-05T04:35:44;99845.47;;;9.99;85.11
48874;BME280;66155;46.204;5.220;2023-01-05T04:40:49;99841.88;;;10.00;85.52
48874;BME280;66155;46.204;5.220;2023-01-05T04:45:49;99836.41;;;10.02;85.20
48874;BME280;66155;46.204;5.220;2023-01-05T04:50:54;99833.03;;;10.01;85.97
48874;BME280;66155;46.204;5.220;2023-01-05T04:55:54;99842.66;;;10.01;85.57
48874;BME280;66155;46.204;5.220;2023-01-05T05:00:55;99840.00;;;10.07;85.22
48874;BME280;66155;46.204;5.220;2023-01-05T05:05:55;99842.81;;;10.06;85.52
48874;BME280;66155;46.204;5.220;2023-01-05T05:10:56;99853.81;;;10.08;85.05
48874;BME280;66155;46.204;5.220;2023-01-05T05:15:56;99850.63;;;10.06;85.86
48874;BME280;66155;46.204;5.220;2023-01-05T05:20:57;99840.22;;;10.06;86.24
48874;BME280;66155;46.204;5.220;2023-01-05T05:25:57;99849.81;;;10.05;86.93
48874;BME280;66155;46.204;5.220;2023-01-05T05:30:58;99857.19;;;10.08;85.91
48874;BME280;66155;46.204;5.220;2023-01-05T05:35:58;99851.38;;;10.13;85.61
48874;BME280;66155;46.204;5.220;2023-01-05T05:40:59;99863.50;;;10.19;85.28
48874;BME280;66155;46.204;5.220;2023-01-05T05:46:00;99858.47;;;10.24;84.91
48874;BME280;66155;46.204;5.220;2023-01-05T05:51:00;99858.81;;;10.28;84.63
48874;BME280;66155;46.204;5.220;2023-01-05T05:56:01;99870.63;;;10.31;84.39
48874;BME280;66155;46.204;5.220;2023-01-05T06:01:01;99864.38;;;10.38;84.23
48874;BME280;66155;46.204;5.220;2023-01-05T06:06:02;99859.59;;;10.35;84.66
48874;BME280;66155;46.204;5.220;2023-01-05T06:11:03;99853.63;;;10.28;85.02
48874;BME280;66155;46.204;5.220;2023-01-05T06:16:04;99864.03;;;10.28;85.31
48874;BME280;66155;46.204;5.220;2023-01-05T06:21:04;99864.63;;;10.30;85.48
48874;BME280;66155;46.204;5.220;2023-01-05T06:26:06;99861.19;;;10.36;84.86
48874;BME280;66155;46.204;5.220;2023-01-05T06:31:06;99864.16;;;10.40;84.42
48874;BME280;66155;46.204;5.220;2023-01-05T06:36:07;99869.31;;;10.46;83.91
48874;BME280;66155;46.204;5.220;2023-01-05T06:41:07;99867.84;;;10.51;84.12
48874;BME280;66155;46.204;5.220;2023-01-05T06:46:08;99872.34;;;10.43;84.06
48874;BME280;66155;46.204;5.220;2023-01-05T06:51:09;99869.59;;;10.38;84.26
48874;BME280;66155;46.204;5.220;2023-01-05T06:56:09;99861.19;;;10.36;84.09
48874;BME280;66155;46.204;5.220;2023-01-05T07:01:09;99853.94;;;10.38;84.21
48874;BME280;66155;46.204;5.220;2023-01-05T07:06:13;99851.78;;;10.35;84.65
48874;BME280;66155;46.204;5.220;2023-01-05T07:11:14;99858.00;;;10.34;84.87
48874;BME280;66155;46.204;5.220;2023-01-05T07:16:15;99854.00;;;10.32;84.88
48874;BME280;66155;46.204;5.220;2023-01-05T07:21:15;99859.16;;;10.38;84.77
48874;BME280;66155;46.204;5.220;2023-01-05T07:26:16;99852.72;;;10.59;84.57
48874;BME280;66155;46.204;5.220;2023-01-05T07:31:16;99854.66;;;10.64;84.14
48874;BME280;66155;46.204;5.220;2023-01-05T07:36:16;99853.84;;;10.52;84.54
48874;BME280;66155;46.204;5.220;2023-01-05T07:41:17;99853.22;;;10.50;84.60
48874;BME280;66155;46.204;5.220;2023-01-05T07:46:18;99860.69;;;10.46;84.95
48874;BME280;66155;46.204;5.220;2023-01-05T07:51:18;99866.25;;;10.50;84.29
48874;BME280;66155;46.204;5.220;2023-01-05T07:56:19;99863.78;;;10.55;84.63
48874;BME280;66155;46.204;5.220;2023-01-05T08:01:19;99868.16;;;10.61;83.91
48874;BME280;66155;46.204;5.220;2023-01-05T08:06:20;99868.16;;;10.61;84.53
48874;BME280;66155;46.204;5.220;2023-01-05T08:11:21;99872.69;;;10.65;84.21
48874;BME280;66155;46.204;5.220;2023-01-05T08:16:22;99875.09;;;10.67;84.04
48874;BME280;66155;46.204;5.220;2023-01-05T08:21:22;99880.59;;;10.77;83.22
48874;BME280;66155;46.204;5.220;2023-01-05T08:26:23;99884.72;;;10.85;83.38
48874;BME280;66155;46.204;5.220;2023-01-05T08:31:26;99890.22;;;10.95;82.61
48874;BME280;66155;46.204;5.220;2023-01-05T08:36:26;99883.84;;;10.91;82.67
48874;BME280;66155;46.204;5.220;2023-01-05T08:41:30;99885.28;;;10.87;83.32
48874;BME280;66155;46.204;5.220;2023-01-05T08:46:33;99875.75;;;10.81;83.27
48874;BME280;66155;46.204;5.220;2023-01-05T08:51:34;99885.03;;;10.77;83.26
48874;BME280;66155;46.204;5.220;2023-01-05T08:56:35;99888.34;;;10.84;82.94
48874;BME280;66155;46.204;5.220;2023-01-05T09:01:36;99895.97;;;10.86;83.47
48874;BME280;66155;46.204;5.220;2023-01-05T09:06:36;99881.75;;;10.81;83.32
48874;BME280;66155;46.204;5.220;2023-01-05T09:11:36;99885.75;;;10.84;83.24
48874;BME280;66155;46.204;5.220;2023-01-05T09:16:37;99893.03;;;10.94;83.03
48874;BME280;66155;46.204;5.220;2023-01-05T09:21:38;99886.50;;;11.03;82.88
48874;BME280;66155;46.204;5.220;2023-01-05T09:26:40;99884.63;;;11.10;82.67
48874;BME280;66155;46.204;5.220;2023-01-05T09:31:41;99896.72;;;11.23;82.25
48874;BME280;66155;46.204;5.220;2023-01-05T09:36:42;99903.50;;;11.24;81.95
48874;BME280;66155;46.204;5.220;2023-01-05T09:46:45;99902.31;;;11.38;81.70
48874;BME280;66155;46.204;5.220;2023-01-05T09:51:51;99904.56;;;11.35;82.21
48874;BME280;66155;46.204;5.220;2023-01-05T09:56:54;99899.47;;;11.28;82.24
48874;BME280;66155;46.204;5.220;2023-01-05T10:02:03;99907.94;;;11.23;82.69
48874;BME280;66155;46.204;5.220;2023-01-05T10:07:07;99907.59;;;11.20;83.05
48874;BME280;66155;46.204;5.220;2023-01-05T10:12:24;99913.06;;;11.30;82.53
48874;BME280;66155;46.204;5.220;2023-01-05T10:17:46;99910.97;;;11.39;82.06
48874;BME280;66155;46.204;5.220;2023-01-05T10:23:09;99907.03;;;11.30;82.88
48874;BME280;66155;46.204;5.220;2023-01-05T10:28:28;99910.06;;;11.45;82.32
48874;BME280;66155;46.204;5.220;2023-01-05T10:38:58;99889.63;;;11.42;83.17
48874;BME280;66155;46.204;5.220;2023-01-05T10:44:20;99887.72;;;11.49;82.72
48874;BME280;66155;46.204;5.220;2023-01-05T10:49:30;99885.81;;;11.56;82.42
48874;BME280;66155;46.204;5.220;2023-01-05T10:54:38;99875.28;;;11.63;82.40
48874;BME280;66155;46.204;5.220;2023-01-05T11:00:13;99874.59;;;11.68;81.95
48874;BME280;66155;46.204;5.220;2023-01-05T11:05:33;99880.41;;;11.70;81.94
48874;BME280;66155;46.204;5.220;2023-01-05T11:10:40;99867.91;;;11.72;81.93
48874;BME280;66155;46.204;5.220;2023-01-05T11:15:43;99862.69;;;11.72;81.83
48874;BME280;66155;46.204;5.220;2023-01-05T11:21:07;99858.03;;;11.74;81.56
48874;BME280;66155;46.204;5.220;2023-01-05T11:31:21;99851.56;;;11.88;81.25
48874;BME280;66155;46.204;5.220;2023-01-05T11:36:25;99842.22;;;11.45;83.17
48874;BME280;66155;46.204;5.220;2023-01-05T11:41:26;99834.78;;;11.84;82.09
48874;BME280;66155;46.204;5.220;2023-01-05T11:46:39;99830.63;;;11.95;81.69
48874;BME280;66155;46.204;5.220;2023-01-05T11:51:41;99827.44;;;11.93;81.68
48874;BME280;66155;46.204;5.220;2023-01-05T11:56:42;99814.94;;;12.07;80.98
48874;BME280;66155;46.204;5.220;2023-01-05T12:07:33;99813.91;;;12.20;80.56
48874;BME280;66155;46.204;5.220;2023-01-05T12:55:11;99753.72;;;12.84;78.61
48874;BME280;66155;46.204;5.220;2023-01-05T13:00:17;99748.25;;;12.85;78.80
48874;BME280;66155;46.204;5.220;2023-01-05T13:05:33;99748.25;;;12.85;78.53
48874;BME280;66155;46.204;5.220;2023-01-05T13:16:26;99733.94;;;13.05;78.31
48874;BME280;66155;46.204;5.220;2023-01-05T13:21:27;99731.31;;;13.05;78.47
48874;BME280;66155;46.204;5.220;2023-01-05T13:26:30;99737.56;;;13.04;78.80
48874;BME280;66155;46.204;5.220;2023-01-05T13:47:47;99723.75;;;12.91;78.75
48874;BME280;66155;46.204;5.220;2023-01-05T13:53:03;99732.97;;;12.94;78.44
48874;BME280;66155;46.204;5.220;2023-01-05T13:58:44;99725.91;;;12.94;78.73
48874;BME280;66155;46.204;5.220;2023-01-05T14:03:47;99725.03;;;12.89;79.04
48874;BME280;66155;46.204;5.220;2023-01-05T14:08:58;99736.19;;;12.84;79.17
48874;BME280;66155;46.204;5.220;2023-01-05T14:14:05;99727.56;;;12.84;79.35
48874;BME280;66155;46.204;5.220;2023-01-05T14:34:51;99719.31;;;12.75;79.54
48874;BME280;66155;46.204;5.220;2023-01-05T14:39:53;99716.28;;;12.66;79.96
48874;BME280;66155;46.204;5.220;2023-01-05T14:45:05;99711.53;;;12.63;80.36
48874;BME280;66155;46.204;5.220;2023-01-05T14:50:34;99709.69;;;12.64;80.04
48874;BME280;66155;46.204;5.220;2023-01-05T14:56:20;99711.34;;;12.53;80.34
48874;BME280;66155;46.204;5.220;2023-01-05T15:06:09;99702.66;;;12.64;79.54
48874;BME280;66155;46.204;5.220;2023-01-05T15:22:04;99694.91;;;12.41;80.22
48874;BME280;66155;46.204;5.220;2023-01-05T15:32:47;99685.22;;;12.12;81.25
48874;BME280;66155;46.204;5.220;2023-01-05T15:37:49;99685.81;;;12.03;81.51
48874;BME280;66155;46.204;5.220;2023-01-05T15:43:00;99680.84;;;12.01;81.47
48874;BME280;66155;46.204;5.220;2023-01-05T15:48:07;99677.91;;;11.97;81.85
48874;BME280;66155;46.204;5.220;2023-01-05T15:58:30;99686.41;;;11.93;81.82
48874;BME280;66155;46.204;5.220;2023-01-05T16:03:36;99677.53;;;11.82;82.71
48874;BME280;66155;46.204;5.220;2023-01-05T16:08:43;99678.91;;;11.85;82.08
48874;BME280;66155;46.204;5.220;2023-01-05T16:19:00;99679.22;;;11.88;82.13
48874;BME280;66155;46.204;5.220;2023-01-05T16:24:12;99672.78;;;11.91;82.33
48874;BME280;66155;46.204;5.220;2023-01-05T16:34:28;99670.97;;;11.91;81.94
48874;BME280;66155;46.204;5.220;2023-01-05T16:39:35;99662.44;;;11.84;82.02
48874;BME280;66155;46.204;5.220;2023-01-05T16:44:35;99671.88;;;11.85;81.92
48874;BME280;66155;46.204;5.220;2023-01-05T16:49:37;99668.72;;;11.83;82.40
48874;BME280;66155;46.204;5.220;2023-01-05T16:54:39;99668.78;;;11.88;82.12
48874;BME280;66155;46.204;5.220;2023-01-05T16:59:45;99665.06;;;11.96;81.54
48874;BME280;66155;46.204;5.220;2023-01-05T17:04:46;99667.00;;;11.77;82.69
48874;BME280;66155;46.204;5.220;2023-01-05T17:09:47;99664.81;;;11.86;82.57
48874;BME280;66155;46.204;5.220;2023-01-05T17:14:48;99667.78;;;11.89;81.99
48874;BME280;66155;46.204;5.220;2023-01-05T17:19:48;99660.94;;;11.88;82.11
48874;BME280;66155;46.204;5.220;2023-01-05T17:24:52;99657.00;;;11.86;82.38
48874;BME280;66155;46.204;5.220;2023-01-05T17:29:53;99662.44;;;11.84;82.46
48874;BME280;66155;46.204;5.220;2023-01-05T17:34:53;99648.25;;;11.92;82.22
48874;BME280;66155;46.204;5.220;2023-01-05T17:39:54;99650.41;;;11.95;81.72
48874;BME280;66155;46.204;5.220;2023-01-05T17:44:54;99642.91;;;11.98;81.51
48874;BME280;66155;46.204;5.220;2023-01-05T17:49:55;99636.34;;;11.96;81.98
48874;BME280;66155;46.204;5.220;2023-01-05T17:54:55;99632.47;;;11.98;81.49
48874;BME280;66155;46.204;5.220;2023-01-05T17:59:56;99639.28;;;12.00;81.68
48874;BME280;66155;46.204;5.220;2023-01-05T18:04:56;99634.06;;;12.00;81.67
48874;BME280;66155;46.204;5.220;2023-01-05T18:09:57;99634.84;;;12.00;81.68
48874;BME280;66155;46.204;5.220;2023-01-05T18:14:58;99631.44;;;12.00;81.65
48874;BME280;66155;46.204;5.220;2023-01-05T18:19:58;99623.28;;;11.96;81.52
48874;BME280;66155;46.204;5.220;2023-01-05T18:24:59;99625.66;;;11.97;81.88
48874;BME280;66155;46.204;5.220;2023-01-05T18:30:00;99630.06;;;11.97;81.63
48874;BME280;66155;46.204;5.220;2023-01-05T18:35:00;99633.00;;;12.01;81.53
48874;BME280;66155;46.204;5.220;2023-01-05T18:40:01;99624.16;;;12.02;81.48
48874;BME280;66155;46.204;5.220;2023-01-05T18:45:03;99619.72;;;12.02;81.36
48874;BME280;66155;46.204;5.220;2023-01-05T18:50:04;99618.28;;;11.94;81.62
48874;BME280;66155;46.204;5.220;2023-01-05T18:55:07;99618.50;;;11.93;81.53
48874;BME280;66155;46.204;5.220;2023-01-05T19:00:08;99614.88;;;11.94;81.43
48874;BME280;66155;46.204;5.220;2023-01-05T19:05:09;99608.94;;;11.98;81.19
48874;BME280;66155;46.204;5.220;2023-01-05T19:10:10;99619.53;;;11.92;81.41
48874;BME280;66155;46.204;5.220;2023-01-05T19:15:10;99608.97;;;11.87;81.17
48874;BME280;66155;46.204;5.220;2023-01-05T19:20:11;99606.94;;;11.89;81.25
48874;BME280;66155;46.204;5.220;2023-01-05T19:25:12;99610.91;;;11.79;81.52
48874;BME280;66155;46.204;5.220;2023-01-05T19:30:13;99604.69;;;11.69;81.72
48874;BME280;66155;46.204;5.220;2023-01-05T19:35:15;99603.34;;;11.66;81.87
48874;BME280;66155;46.204;5.220;2023-01-05T19:40:16;99603.78;;;11.63;81.95
48874;BME280;66155;46.204;5.220;2023-01-05T19:45:16;99607.91;;;11.59;82.23
48874;BME280;66155;46.204;5.220;2023-01-05T19:50:17;99608.47;;;11.61;81.83
48874;BME280;66155;46.204;5.220;2023-01-05T19:55:17;99607.22;;;11.64;82.01
48874;BME280;66155;46.204;5.220;2023-01-05T20:00:18;99597.56;;;11.52;82.50
48874;BME280;66155;46.204;5.220;2023-01-05T20:05:18;99600.63;;;11.49;82.36
48874;BME280;66155;46.204;5.220;2023-01-05T20:10:19;99595.09;;;11.46;82.53
48874;BME280;66155;46.204;5.220;2023-01-05T20:15:21;99597.34;;;11.42;82.96
48874;BME280;66155;46.204;5.220;2023-01-05T20:20:21;99592.03;;;11.37;82.90
48874;BME280;66155;46.204;5.220;2023-01-05T20:25:23;99597.50;;;11.35;82.78
48874;BME280;66155;46.204;5.220;2023-01-05T20:30:24;99584.56;;;11.29;83.43
48874;BME280;66155;46.204;5.220;2023-01-05T20:35:24;99582.06;;;11.22;83.66
48874;BME280;66155;46.204;5.220;2023-01-05T20:40:25;99575.50;;;11.19;83.91
48874;BME280;66155;46.204;5.220;2023-01-05T20:45:26;99567.69;;;11.19;83.80
48874;BME280;66155;46.204;5.220;2023-01-05T20:50:26;99573.34;;;11.16;83.93
48874;BME280;66155;46.204;5.220;2023-01-05T20:55:28;99566.19;;;11.12;84.12
48874;BME280;66155;46.204;5.220;2023-01-05T21:00:29;99571.06;;;11.08;84.32
48874;BME280;66155;46.204;5.220;2023-01-05T21:05:32;99570.28;;;11.08;84.40
48874;BME280;66155;46.204;5.220;2023-01-05T21:10:33;99574.72;;;11.07;84.25
48874;BME280;66155;46.204;5.220;2023-01-05T21:15:36;99568.69;;;11.07;84.36
48874;BME280;66155;46.204;5.220;2023-01-05T21:20:40;99574.16;;;11.05;84.67
48874;BME280;66155;46.204;5.220;2023-01-05T21:25:46;99563.13;;;11.03;84.66
48874;BME280;66155;46.204;5.220;2023-01-05T21:30:47;99564.28;;;11.07;84.37
48874;BME280;66155;46.204;5.220;2023-01-05T21:35:52;99565.06;;;11.08;84.18
48874;BME280;66155;46.204;5.220;2023-01-05T21:41:08;99573.91;;;11.07;84.87
48874;BME280;66155;46.204;5.220;2023-01-05T21:46:10;99565.97;;;11.13;84.13
48874;BME280;66155;46.204;5.220;2023-01-05T21:51:13;99574.38;;;11.15;83.88
48874;BME280;66155;46.204;5.220;2023-01-05T21:56:37;99565.53;;;11.16;83.93
48874;BME280;66155;46.204;5.220;2023-01-05T22:01:38;99566.88;;;11.19;83.65
48874;BME280;66155;46.204;5.220;2023-01-05T22:06:39;99561.44;;;11.20;83.65
48874;BME280;66155;46.204;5.220;2023-01-05T22:11:40;99559.75;;;11.14;84.45
48874;BME280;66155;46.204;5.220;2023-01-05T22:16:40;99562.47;;;11.08;85.11
48874;BME280;66155;46.204;5.220;2023-01-05T22:21:41;99563.41;;;11.01;85.41
48874;BME280;66155;46.204;5.220;2023-01-05T22:26:42;99542.19;;;10.98;85.62
48874;BME280;66155;46.204;5.220;2023-01-05T22:31:42;99548.53;;;11.02;85.87
48874;BME280;66155;46.204;5.220;2023-01-05T22:36:43;99550.69;;;11.05;85.31
48874;BME280;66155;46.204;5.220;2023-01-05T22:41:44;99550.47;;;10.95;85.87
48874;BME280;66155;46.204;5.220;2023-01-05T22:46:45;99560.78;;;11.01;85.58
48874;BME280;66155;46.204;5.220;2023-01-05T22:51:46;99566.22;;;11.00;85.78
48874;BME280;66155;46.204;5.220;2023-01-05T22:56:47;99556.69;;;11.06;85.11
48874;BME280;66155;46.204;5.220;2023-01-05T23:01:47;99553.38;;;11.10;84.93
48874;BME280;66155;46.204;5.220;2023-01-05T23:06:48;99554.09;;;11.06;85.35
48874;BME280;66155;46.204;5.220;2023-01-05T23:11:48;99552.72;;;11.03;85.58
48874;BME280;66155;46.204;5.220;2023-01-05T23:16:49;99551.03;;;10.97;85.86
48874;BME280;66155;46.204;5.220;2023-01-05T23:21:49;99538.53;;;10.87;86.44
48874;BME280;66155;46.204;5.220;2023-01-05T23:26:50;99548.41;;;10.85;86.32
48874;BME280;66155;46.204;5.220;2023-01-05T23:31:50;99537.75;;;10.87;86.11
48874;BME280;66155;46.204;5.220;2023-01-05T23:36:51;99548.41;;;10.85;86.46
48874;BME280;66155;46.204;5.220;2023-01-05T23:41:52;99544.22;;;10.84;86.71
48874;BME280;66155;46.204;5.220;2023-01-05T23:46:52;99532.09;;;10.90;86.34
48874;BME280;66155;46.204;5.220;2023-01-05T23:51:53;99522.00;;;10.81;86.58
48874;BME280;66155;46.204;5.220;2023-01-05T23:56:53;99521.78;;;10.83;86.48
